createdAt,value
2022-10-10T00:01:09.121Z,12.21
2022-10-10T00:03:35.862Z,12.18
2022-10-10T00:06:02.388Z,11.96
2022-10-10T00:08:29.005Z,11.87
2022-10-10T00:10:55.773Z,11.91
2022-10-10T00:13:22.398Z,12.00
2022-10-10T00:15:49.124Z,11.92
2022-10-10T00:18:16.821Z,11.99
2022-10-10T00:20:43.375Z,12.04
2022-10-10T00:23:09.996Z,12.27
2022-10-10T00:25:37.162Z,12.40
2022-10-10T00:28:06.109Z,12.33
2022-10-10T00:30:32.701Z,12.05
2022-10-10T00:33:00.345Z,11.92
2022-10-10T00:35:28.083Z,11.88
2022-10-10T00:37:54.706Z,11.85
2022-10-10T00:40:22.344Z,11.76
2022-10-10T00:42:49.101Z,11.55
2022-10-10T00:45:32.925Z,11.34
2022-10-10T00:48:06.611Z,11.36
2022-10-10T00:50:37.754Z,11.45
2022-10-10T00:53:06.767Z,11.39
2022-10-10T00:55:34.321Z,11.49
2022-10-10T00:58:01.306Z,11.38
2022-10-10T01:00:27.920Z,11.28
2022-10-10T01:02:54.609Z,11.31
2022-10-10T01:05:21.238Z,11.37
2022-10-10T01:07:47.836Z,11.39
2022-10-10T01:10:17.172Z,11.40
2022-10-10T01:13:05.909Z,11.44
2022-10-10T01:15:55.769Z,11.40
2022-10-10T01:18:35.991Z,11.44
2022-10-10T01:21:22.760Z,11.46
2022-10-10T01:24:00.202Z,11.37
2022-10-10T01:26:45.320Z,11.26
2022-10-10T01:29:31.073Z,11.39
2022-10-10T01:32:03.144Z,11.42
2022-10-10T01:35:07.663Z,11.29
2022-10-10T01:37:43.324Z,11.23
2022-10-10T01:40:31.431Z,11.23
2022-10-10T01:43:07.641Z,11.20
2022-10-10T01:45:34.533Z,11.15
2022-10-10T01:48:06.941Z,11.21
2022-10-10T01:50:54.605Z,11.10
2022-10-10T01:53:30.921Z,11.13
2022-10-10T01:56:22.795Z,11.40
2022-10-10T01:58:57.036Z,11.43
2022-10-10T02:01:42.121Z,11.50
2022-10-10T02:04:41.167Z,11.50
2022-10-10T02:07:33.357Z,11.40
2022-10-10T02:10:02.962Z,11.38
2022-10-10T02:12:31.757Z,11.36
2022-10-10T02:15:07.100Z,11.32
2022-10-10T02:17:35.687Z,11.31
2022-10-10T02:20:02.557Z,11.32
2022-10-10T02:22:29.964Z,11.37
2022-10-10T02:24:56.825Z,11.37
2022-10-10T02:27:36.540Z,11.33
2022-10-10T02:30:05.623Z,11.32
2022-10-10T02:32:44.650Z,11.27
2022-10-10T02:35:25.124Z,11.35
2022-10-10T02:37:54.060Z,11.36
2022-10-10T02:40:23.793Z,11.50
2022-10-10T02:42:53.201Z,11.38
2022-10-10T02:45:21.258Z,11.32
2022-10-10T02:47:47.905Z,11.28
2022-10-10T02:50:14.502Z,11.26
2022-10-10T02:52:41.183Z,11.23
2022-10-10T02:55:08.053Z,11.36
2022-10-10T02:57:35.184Z,11.52
2022-10-10T03:00:01.732Z,11.53
2022-10-10T03:02:28.308Z,11.39
2022-10-10T03:04:54.954Z,11.50
2022-10-10T03:07:21.467Z,11.58
2022-10-10T03:09:47.947Z,11.47
2022-10-10T03:12:14.576Z,11.43
2022-10-10T03:14:41.145Z,11.44
2022-10-10T03:17:07.761Z,11.46
2022-10-10T03:19:34.298Z,11.49
2022-10-10T03:22:00.891Z,11.53
2022-10-10T03:24:27.877Z,11.55
2022-10-10T03:26:54.632Z,11.48
2022-10-10T03:29:21.161Z,11.40
2022-10-10T03:31:48.610Z,11.52
2022-10-10T03:34:15.173Z,11.56
2022-10-10T03:36:41.780Z,11.62
2022-10-10T03:39:09.244Z,11.74
2022-10-10T03:41:36.498Z,11.79
2022-10-10T03:44:03.117Z,11.78
2022-10-10T03:46:29.647Z,11.82
2022-10-10T03:48:56.159Z,11.74
2022-10-10T03:51:23.095Z,11.74
2022-10-10T03:53:49.703Z,11.81
2022-10-10T03:56:16.338Z,11.85
2022-10-10T03:58:42.841Z,11.82
2022-10-10T04:01:09.494Z,11.81
2022-10-10T04:03:36.070Z,11.92
2022-10-10T04:06:02.573Z,11.96
2022-10-10T04:08:30.483Z,11.88
2022-10-10T04:10:57.521Z,11.90
2022-10-10T04:13:25.700Z,11.90
2022-10-10T04:15:54.093Z,11.91
2022-10-10T04:18:21.337Z,11.88
2022-10-10T04:20:48.017Z,11.86
2022-10-10T04:23:14.829Z,11.84
2022-10-10T04:25:41.841Z,11.94
2022-10-10T04:28:11.945Z,11.88
2022-10-10T04:30:38.561Z,11.89
2022-10-10T04:33:05.086Z,11.86
2022-10-10T04:35:32.521Z,11.92
2022-10-10T04:37:59.081Z,11.94
2022-10-10T04:40:26.970Z,11.86
2022-10-10T04:42:55.134Z,11.85
2022-10-10T04:45:26.305Z,11.80
2022-10-10T04:47:54.274Z,11.78
2022-10-10T04:50:21.703Z,11.75
2022-10-10T04:52:48.903Z,11.78
2022-10-10T04:55:15.790Z,11.75
2022-10-10T04:57:42.355Z,11.74
2022-10-10T05:00:09.955Z,11.78
2022-10-10T05:02:36.604Z,11.83
2022-10-10T05:05:03.624Z,11.90
2022-10-10T05:07:30.392Z,11.84
2022-10-10T05:09:57.518Z,11.90
2022-10-10T05:12:24.854Z,11.83
2022-10-10T05:14:51.389Z,11.86
2022-10-10T05:17:18.077Z,11.93
2022-10-10T05:19:45.635Z,11.88
2022-10-10T05:22:12.208Z,11.89
2022-10-10T05:24:40.188Z,11.86
2022-10-10T05:27:06.787Z,11.88
2022-10-10T05:29:33.280Z,11.81
2022-10-10T05:31:59.777Z,11.85
2022-10-10T05:34:26.546Z,11.87
2022-10-10T05:36:53.238Z,11.85
2022-10-10T05:39:19.913Z,11.91
2022-10-10T05:41:46.432Z,12.01
2022-10-10T05:44:12.979Z,11.96
2022-10-10T05:46:39.496Z,12.03
2022-10-10T05:49:06.056Z,12.05
2022-10-10T05:51:32.679Z,12.02
2022-10-10T05:53:59.271Z,11.95
2022-10-10T05:56:25.930Z,11.94
2022-10-10T05:58:52.505Z,11.93
2022-10-10T06:01:19.135Z,11.94
2022-10-10T06:03:45.678Z,11.95
2022-10-10T06:06:12.260Z,11.95
2022-10-10T06:08:38.796Z,12.07
2022-10-10T06:11:11.052Z,12.10
2022-10-10T06:13:39.030Z,12.06
2022-10-10T06:16:05.657Z,12.07
2022-10-10T06:18:32.345Z,12.14
2022-10-10T06:21:03.948Z,12.08
2022-10-10T06:23:30.556Z,11.96
2022-10-10T06:25:57.052Z,11.99
2022-10-10T06:28:23.769Z,12.05
2022-10-10T06:30:50.990Z,12.08
2022-10-10T06:33:19.187Z,12.03
2022-10-10T06:35:48.352Z,11.99
2022-10-10T06:38:16.445Z,12.06
2022-10-10T06:40:43.746Z,12.07
2022-10-10T06:43:12.847Z,12.04
2022-10-10T06:45:41.997Z,12.06
2022-10-10T06:48:09.426Z,12.10
2022-10-10T06:50:36.407Z,12.21
2022-10-10T06:53:04.125Z,12.29
2022-10-10T06:55:30.788Z,12.22
2022-10-10T06:57:57.463Z,12.27
2022-10-10T07:00:24.628Z,12.28
2022-10-10T07:02:52.354Z,12.47
2022-10-10T07:05:19.367Z,12.50
2022-10-10T07:07:46.139Z,12.53
2022-10-10T07:10:14.375Z,12.73
2022-10-10T07:12:44.450Z,12.73
2022-10-10T07:15:11.678Z,12.86
2022-10-10T07:17:38.404Z,12.91
2022-10-10T07:20:05.609Z,13.11
2022-10-10T07:22:32.166Z,13.06
2022-10-10T07:24:58.692Z,13.06
2022-10-10T07:27:25.190Z,13.11
2022-10-10T07:29:51.774Z,13.21
2022-10-10T07:32:18.308Z,13.24
2022-10-10T07:34:44.858Z,13.30
2022-10-10T07:37:11.349Z,13.35
2022-10-10T07:39:37.941Z,13.44
2022-10-10T07:42:04.464Z,13.50
2022-10-10T07:44:34.403Z,13.49
2022-10-10T07:47:01.514Z,13.45
2022-10-10T07:49:28.141Z,13.56
2022-10-10T07:52:00.404Z,13.68
2022-10-10T07:54:31.011Z,13.70
2022-10-10T07:56:59.411Z,13.75
2022-10-10T07:59:26.033Z,13.82
2022-10-10T08:01:52.941Z,13.86
2022-10-10T08:04:19.971Z,13.87
2022-10-10T08:06:46.633Z,13.72
2022-10-10T08:09:13.164Z,13.74
2022-10-10T08:11:39.806Z,13.80
2022-10-10T08:14:06.337Z,13.98
2022-10-10T08:16:32.901Z,14.02
2022-10-10T08:18:59.497Z,13.92
2022-10-10T08:21:26.229Z,13.94
2022-10-10T08:23:52.880Z,13.99
2022-10-10T08:26:22.591Z,14.06
2022-10-10T08:28:49.448Z,14.10
2022-10-10T08:31:19.099Z,14.19
2022-10-10T08:33:46.394Z,14.20
2022-10-10T08:36:16.203Z,14.12
2022-10-10T08:38:43.388Z,14.25
2022-10-10T08:41:34.334Z,14.38
2022-10-10T08:44:07.481Z,14.41
2022-10-10T08:46:49.115Z,14.47
2022-10-10T08:49:43.496Z,14.57
2022-10-10T08:52:41.391Z,14.63
2022-10-10T08:55:34.497Z,14.74
2022-10-10T08:58:10.629Z,14.77
2022-10-10T09:00:47.550Z,14.90
2022-10-10T09:03:42.018Z,14.86
2022-10-10T09:06:30.623Z,14.87
2022-10-10T09:09:28.291Z,15.16
2022-10-10T09:12:04.412Z,15.27
2022-10-10T09:14:59.807Z,15.34
2022-10-10T09:17:37.966Z,15.41
2022-10-10T09:20:07.597Z,15.38
2022-10-10T09:22:40.587Z,15.41
2022-10-10T09:25:22.271Z,15.64
2022-10-10T09:28:07.873Z,15.66
2022-10-10T09:30:40.788Z,15.73
2022-10-10T09:33:28.736Z,15.72
2022-10-10T09:35:57.980Z,15.76
2022-10-10T09:38:49.906Z,15.99
2022-10-10T09:41:39.021Z,16.03
2022-10-10T09:44:11.419Z,16.04
2022-10-10T09:46:38.407Z,16.16
2022-10-10T09:49:05.532Z,16.46
2022-10-10T09:51:33.208Z,16.41
2022-10-10T09:53:59.800Z,16.40
2022-10-10T09:56:31.128Z,16.42
2022-10-10T09:58:58.110Z,16.60
2022-10-10T10:01:26.609Z,16.92
2022-10-10T10:04:27.126Z,16.99
2022-10-10T10:07:21.556Z,16.92
2022-10-10T10:09:55.009Z,16.92
2022-10-10T10:12:29.134Z,16.74
2022-10-10T10:15:02.860Z,16.65
2022-10-10T10:17:29.906Z,16.70
2022-10-10T10:19:56.521Z,16.72
2022-10-10T10:22:38.475Z,16.70
2022-10-10T10:25:31.443Z,16.62
2022-10-10T10:28:11.057Z,16.64
2022-10-10T10:30:39.167Z,16.59
2022-10-10T10:33:40.387Z,16.50
2022-10-10T10:36:28.803Z,16.62
2022-10-10T10:39:26.509Z,16.72
2022-10-10T10:42:14.112Z,16.67
2022-10-10T10:44:44.262Z,16.87
2022-10-10T10:47:22.806Z,16.77
2022-10-10T10:50:11.179Z,16.81
2022-10-10T10:52:53.730Z,16.82
2022-10-10T10:55:55.945Z,16.91
2022-10-10T11:01:55.091Z,16.82
2022-10-10T11:05:17.267Z,16.87
2022-10-10T11:07:47.614Z,16.98
2022-10-10T11:10:40.248Z,17.00
2022-10-10T11:13:13.134Z,16.98
2022-10-10T11:16:05.291Z,17.08
2022-10-10T11:18:45.945Z,17.22
2022-10-10T11:21:26.795Z,17.24
2022-10-10T11:24:01.351Z,17.42
2022-10-10T11:26:35.586Z,17.37
2022-10-10T11:29:09.060Z,17.38
2022-10-10T11:31:44.702Z,17.36
2022-10-10T11:34:24.897Z,17.30
2022-10-10T11:36:56.201Z,17.25
2022-10-10T11:39:36.899Z,17.29
2022-10-10T11:42:13.537Z,17.44
2022-10-10T11:44:45.648Z,17.44
2022-10-10T11:47:33.922Z,17.34
2022-10-10T11:50:20.005Z,17.28
2022-10-10T11:53:00.328Z,17.25
2022-10-10T11:55:53.022Z,17.42
2022-10-10T11:58:29.180Z,17.35
2022-10-10T12:01:10.957Z,17.27
2022-10-10T12:03:37.536Z,17.33
2022-10-10T12:06:32.101Z,17.35
2022-10-10T12:09:08.609Z,17.52
2022-10-10T12:11:49.209Z,17.52
2022-10-10T12:14:19.361Z,17.52
2022-10-10T12:16:46.744Z,17.46
2022-10-10T12:19:22.071Z,17.36
2022-10-10T12:22:02.911Z,17.55
2022-10-10T12:24:33.136Z,17.68
2022-10-10T12:26:59.649Z,17.70
2022-10-10T12:30:09.238Z,17.58
2022-10-10T12:32:43.377Z,17.67
2022-10-10T12:35:36.593Z,17.56
2022-10-10T12:38:12.495Z,17.58
2022-10-10T12:40:57.168Z,17.59
2022-10-10T12:43:25.237Z,17.93
2022-10-10T12:46:08.160Z,17.81
2022-10-10T12:48:36.022Z,17.84
2022-10-10T12:51:03.333Z,17.97
2022-10-10T12:53:34.195Z,18.21
2022-10-10T12:56:03.011Z,18.06
2022-10-10T12:58:34.617Z,17.85
2022-10-10T13:01:27.703Z,17.90
2022-10-10T13:03:55.777Z,18.12
2022-10-10T13:06:39.173Z,18.35
2022-10-10T13:09:19.975Z,18.26
2022-10-10T13:11:58.577Z,18.19
2022-10-10T13:14:27.787Z,18.27
2022-10-10T13:16:54.506Z,18.18
2022-10-10T13:19:25.071Z,18.30
2022-10-10T13:21:53.267Z,18.38
2022-10-10T13:24:26.656Z,18.31
2022-10-10T13:26:53.976Z,18.45
2022-10-10T13:29:33.917Z,18.57
2022-10-10T13:32:07.238Z,18.51
2022-10-10T13:34:37.443Z,18.68
2022-10-10T13:37:05.856Z,18.70
2022-10-10T13:39:36.466Z,18.79
2022-10-10T13:42:05.977Z,18.92
2022-10-10T13:44:50.060Z,19.00
2022-10-10T13:47:41.037Z,18.86
2022-10-10T13:50:35.451Z,18.72
2022-10-10T13:53:27.244Z,18.77
2022-10-10T13:56:08.916Z,18.64
2022-10-10T13:58:46.532Z,18.55
2022-10-10T14:01:32.481Z,18.60
2022-10-10T14:04:07.879Z,18.52
2022-10-10T14:06:35.262Z,18.51
2022-10-10T14:09:21.619Z,18.36
2022-10-10T14:11:50.467Z,18.34
2022-10-10T14:14:23.154Z,18.30
2022-10-10T14:17:05.043Z,18.43
2022-10-10T14:19:33.071Z,18.47
2022-10-10T14:21:59.735Z,18.31
2022-10-10T14:24:26.647Z,18.56
2022-10-10T14:26:53.356Z,18.59
2022-10-10T14:29:21.377Z,18.77
2022-10-10T14:31:48.237Z,18.81
2022-10-10T14:34:15.478Z,18.74
2022-10-10T14:36:46.960Z,18.49
2022-10-10T14:39:18.612Z,18.40
2022-10-10T14:41:45.620Z,18.29
2022-10-10T14:44:12.662Z,18.28
2022-10-10T14:46:40.261Z,18.17
2022-10-10T14:49:12.338Z,18.05
2022-10-10T14:51:39.600Z,17.94
2022-10-10T14:54:10.917Z,17.87
2022-10-10T14:57:09.132Z,17.91
2022-10-10T14:59:46.514Z,17.92
2022-10-10T15:02:20.903Z,18.02
2022-10-10T15:04:47.734Z,17.95
2022-10-10T15:07:15.510Z,17.98
2022-10-10T15:12:34.927Z,17.76
2022-10-10T15:15:01.689Z,17.77
2022-10-10T15:17:29.648Z,17.76
2022-10-10T15:19:56.314Z,17.74
2022-10-10T15:22:22.848Z,17.81
2022-10-10T15:24:49.466Z,17.77
2022-10-10T15:27:17.046Z,17.87
2022-10-10T15:29:43.628Z,17.89
2022-10-10T15:32:10.241Z,17.86
2022-10-10T15:34:36.872Z,17.74
2022-10-10T15:37:03.667Z,17.64
2022-10-10T15:39:31.363Z,17.66
2022-10-10T15:41:58.059Z,17.60
2022-10-10T15:44:24.589Z,17.50
2022-10-10T15:46:51.877Z,17.37
2022-10-10T15:49:18.681Z,17.28
2022-10-10T15:51:46.842Z,17.27
2022-10-10T15:54:14.410Z,17.32
2022-10-10T15:56:41.759Z,17.26
2022-10-10T15:59:09.437Z,17.13
2022-10-10T16:01:36.950Z,17.04
2022-10-10T16:04:04.714Z,17.03
2022-10-10T16:06:31.247Z,17.04
2022-10-10T16:09:16.323Z,16.93
2022-10-10T16:11:44.710Z,16.61
2022-10-10T16:14:11.309Z,16.48
2022-10-10T16:16:38.396Z,16.28
2022-10-10T16:19:05.106Z,16.26
2022-10-10T16:21:33.331Z,16.14
2022-10-10T16:24:00.351Z,16.14
2022-10-10T16:26:32.095Z,16.13
2022-10-10T16:29:00.179Z,16.22
2022-10-10T16:31:27.868Z,16.23
2022-10-10T16:33:56.287Z,16.25
2022-10-10T16:36:28.371Z,16.09
2022-10-10T16:38:57.323Z,16.11
2022-10-10T16:41:46.425Z,16.15
2022-10-10T16:44:12.685Z,16.21
2022-10-10T16:46:39.222Z,16.17
2022-10-10T16:49:05.849Z,16.11
2022-10-10T16:51:32.455Z,16.20
2022-10-10T16:54:01.491Z,16.18
2022-10-10T16:56:29.507Z,16.24
2022-10-10T16:58:58.079Z,16.27
2022-10-10T17:01:25.010Z,16.20
2022-10-10T17:03:53.063Z,16.18
2022-10-10T17:06:22.725Z,15.84
2022-10-10T17:08:51.541Z,15.30
2022-10-10T17:11:20.331Z,15.05
2022-10-10T17:13:48.061Z,14.93
2022-10-10T17:19:04.774Z,14.89
2022-10-10T17:21:31.490Z,15.00
2022-10-10T17:23:58.346Z,15.08
2022-10-10T17:26:26.217Z,15.05
2022-10-10T17:28:58.079Z,14.95
2022-10-10T17:31:25.940Z,14.92
2022-10-10T17:33:54.518Z,14.91
2022-10-10T17:36:26.748Z,15.03
2022-10-10T17:38:55.900Z,14.99
2022-10-10T17:41:23.219Z,14.95
2022-10-10T17:43:49.782Z,15.04
2022-10-10T17:46:36.788Z,14.98
2022-10-10T17:49:08.666Z,15.02
2022-10-10T17:51:36.334Z,15.06
2022-10-10T17:54:04.271Z,15.07
2022-10-10T17:56:31.489Z,15.08
2022-10-10T17:59:01.892Z,15.15
2022-10-10T18:01:30.403Z,15.08
2022-10-10T18:03:57.299Z,15.05
2022-10-10T18:06:23.958Z,15.00
2022-10-10T18:08:52.601Z,14.89
2022-10-10T18:11:22.039Z,14.91
2022-10-10T18:13:48.716Z,14.87
2022-10-10T18:16:18.209Z,14.86
2022-10-10T18:18:50.666Z,14.61
2022-10-10T18:21:19.971Z,14.52
2022-10-10T18:23:46.640Z,14.65
2022-10-10T18:26:16.191Z,14.57
2022-10-10T18:28:43.621Z,14.58
2022-10-10T18:31:13.978Z,14.76
2022-10-10T18:33:42.094Z,14.67
2022-10-10T18:36:09.709Z,14.42
2022-10-10T18:38:37.560Z,14.45
2022-10-10T18:41:09.198Z,14.50
2022-10-10T18:43:36.479Z,14.61
2022-10-10T18:46:05.629Z,14.73
2022-10-10T18:48:32.402Z,14.74
2022-10-10T18:51:04.574Z,14.71
2022-10-10T18:53:34.556Z,14.55
2022-10-10T18:56:01.413Z,14.41
2022-10-10T18:58:27.936Z,14.52
2022-10-10T19:01:02.666Z,14.45
2022-10-10T19:03:29.617Z,14.44
2022-10-10T19:05:56.381Z,14.35
2022-10-10T19:08:23.197Z,14.30
2022-10-10T19:10:50.970Z,14.17
2022-10-10T19:13:18.245Z,14.14
2022-10-10T19:15:45.580Z,14.18
2022-10-10T19:18:12.146Z,14.24
2022-10-10T19:20:39.759Z,14.29
2022-10-10T19:23:06.717Z,14.32
2022-10-10T19:25:40.291Z,14.27
2022-10-10T19:28:07.685Z,14.20
2022-10-10T19:30:39.631Z,14.33
2022-10-10T19:33:06.369Z,14.29
2022-10-10T19:35:37.563Z,14.08
2022-10-10T19:38:06.006Z,14.25
2022-10-10T19:40:33.145Z,14.39
2022-10-10T19:42:59.816Z,14.42
2022-10-10T19:45:26.578Z,14.46
2022-10-10T19:47:53.192Z,14.39
2022-10-10T19:50:20.051Z,14.41
2022-10-10T19:52:46.560Z,14.21
2022-10-10T19:55:13.146Z,14.08
2022-10-10T19:57:39.669Z,14.07
2022-10-10T20:00:07.497Z,14.04
2022-10-10T20:02:37.968Z,14.09
2022-10-10T20:05:04.873Z,14.10
2022-10-10T20:07:31.525Z,14.11
2022-10-10T20:09:58.069Z,14.06
2022-10-10T20:12:24.651Z,14.05
2022-10-10T20:14:51.172Z,13.95
2022-10-10T20:17:17.701Z,13.86
2022-10-10T20:19:44.403Z,13.84
2022-10-10T20:22:10.938Z,13.86
2022-10-10T20:24:37.598Z,13.89
2022-10-10T20:27:04.356Z,13.76
2022-10-10T20:29:30.926Z,13.76
2022-10-10T20:31:57.479Z,13.74
2022-10-10T20:34:23.990Z,13.73
2022-10-10T20:36:50.663Z,13.64
2022-10-10T20:39:17.184Z,13.52
2022-10-10T20:41:43.804Z,13.49
2022-10-10T20:44:12.950Z,13.48
2022-10-10T20:46:42.155Z,13.48
2022-10-10T20:49:20.249Z,13.61
2022-10-10T20:51:49.425Z,13.40
2022-10-10T20:54:21.338Z,13.42
2022-10-10T20:56:51.013Z,13.44
2022-10-10T20:59:19.068Z,13.43
2022-10-10T21:01:45.903Z,13.35
2022-10-10T21:04:13.916Z,13.39
2022-10-10T21:06:42.646Z,13.37
2022-10-10T21:09:11.276Z,13.26
2022-10-10T21:11:38.983Z,13.23
2022-10-10T21:14:05.832Z,13.25
2022-10-10T21:16:38.188Z,13.30
2022-10-10T21:19:07.239Z,13.31
2022-10-10T21:21:35.060Z,13.32
2022-10-10T21:24:06.513Z,13.22
2022-10-10T21:26:33.554Z,13.20
2022-10-10T21:29:03.195Z,13.06
2022-10-10T21:31:38.321Z,12.97
2022-10-10T21:34:08.068Z,13.05
2022-10-10T21:36:36.029Z,13.01
2022-10-10T21:39:06.498Z,12.96
2022-10-10T21:41:33.075Z,13.02
2022-10-10T21:44:00.032Z,12.76
2022-10-10T21:46:33.592Z,12.62
2022-10-10T21:49:06.961Z,12.73
2022-10-10T21:51:38.672Z,12.72
2022-10-10T21:54:06.009Z,12.65
2022-10-10T21:56:33.658Z,12.88
2022-10-10T21:59:01.616Z,12.80
2022-10-10T22:01:29.326Z,12.80
2022-10-10T22:03:56.317Z,12.85
2022-10-10T22:06:24.452Z,12.84
2022-10-10T22:08:54.220Z,12.74
2022-10-10T22:11:23.913Z,12.78
2022-10-10T22:13:51.211Z,12.74
2022-10-10T22:16:19.027Z,12.77
2022-10-10T22:18:45.617Z,12.73
2022-10-10T22:21:15.336Z,12.84
2022-10-10T22:23:43.180Z,12.82
2022-10-10T22:26:12.931Z,12.81
2022-10-10T22:28:40.134Z,12.89
2022-10-10T22:31:11.865Z,12.77
2022-10-10T22:33:38.709Z,12.78
2022-10-10T22:36:06.787Z,12.64
2022-10-10T22:38:37.768Z,12.56
2022-10-10T22:41:04.432Z,12.51
2022-10-10T22:43:31.151Z,12.51
2022-10-10T22:45:57.837Z,12.55
2022-10-10T22:48:25.078Z,12.54
2022-10-10T22:51:03.694Z,12.52
2022-10-10T22:53:30.978Z,12.50
2022-10-10T22:55:57.590Z,12.47
2022-10-10T22:58:24.305Z,12.46
2022-10-10T23:00:51.325Z,12.39
2022-10-10T23:03:19.071Z,12.29
2022-10-10T23:05:45.943Z,12.00
2022-10-10T23:08:13.162Z,12.03
2022-10-10T23:10:39.802Z,11.99
2022-10-10T23:13:06.477Z,11.87
2022-10-10T23:15:33.070Z,12.00
2022-10-10T23:17:59.803Z,11.94
2022-10-10T23:20:26.593Z,12.08
2022-10-10T23:22:53.841Z,12.15
2022-10-10T23:25:20.665Z,12.17
2022-10-10T23:27:47.268Z,12.11
2022-10-10T23:30:13.961Z,11.97
2022-10-10T23:32:40.945Z,11.89
2022-10-10T23:35:08.158Z,11.87
2022-10-10T23:37:34.757Z,11.90
2022-10-10T23:40:01.320Z,11.81
2022-10-10T23:42:27.956Z,11.85
2022-10-10T23:44:54.496Z,11.90
2022-10-10T23:47:21.190Z,11.97
2022-10-10T23:49:47.736Z,11.97
2022-10-10T23:52:14.364Z,11.88
2022-10-10T23:54:41.146Z,11.74
2022-10-10T23:57:08.383Z,11.73
2022-10-10T23:59:35.164Z,11.69
